Millville, Minnesota
Current Conditions -  °F | °C
As of 11:53 AM on Thursday 30 Oct 2014 (Local Time) from K9MN Reporting Station
Overcast Overcast  
Wind Chill: 43°   Ceiling: 4800
Heat Index: 43°   Visibility: 10mi
Dew Point: 36°   Wind: 0mph
Humidity: 76%   Direction: NA
Pressure: 30.07"   Gusts: NA
Location:  44.24°N, 92.3°W
Report Text: K9MN 301653Z AUTO 00000KT 10SM BKN048 OVC055 06/02 A3007 RMK AO1 T00600020
Loading
Personal Weather Stations






























Interactive Weather Map
Tropical Storm Tracking
New forecast layout! Learn more

10-Day Weather Forecast

Advertisements
Track Severe Weather on mobile